createdAt,value
2018-04-24T08:12:08.640Z,12.30
2018-04-24T08:13:06.613Z,12.26
2018-04-24T08:14:06.589Z,12.37
2018-04-24T08:15:06.609Z,12.21
2018-04-24T08:16:06.671Z,12.19
2018-04-24T08:17:06.623Z,12.29
2018-04-24T08:18:06.633Z,12.21
2018-04-24T08:19:06.645Z,12.15
2018-04-24T08:20:06.648Z,12.16
2018-04-24T08:21:06.699Z,12.05
2018-04-24T08:22:06.679Z,12.13
2018-04-24T08:23:06.694Z,12.22
2018-04-24T08:24:06.688Z,12.15
2018-04-24T08:25:06.694Z,12.18
2018-04-24T08:26:06.713Z,12.21
2018-04-24T08:27:06.721Z,12.18
2018-04-24T08:28:06.732Z,12.31
2018-04-24T08:29:06.774Z,12.33
2018-04-24T08:30:06.752Z,12.29
2018-04-24T08:31:06.776Z,12.36
2018-04-24T08:32:06.767Z,12.41
2018-04-24T08:33:06.791Z,12.38
2018-04-24T08:34:06.823Z,12.38
2018-04-24T08:35:06.800Z,12.44
2018-04-24T08:36:06.864Z,12.49
2018-04-24T08:37:06.815Z,12.40
2018-04-24T08:38:06.823Z,12.38
2018-04-24T08:39:06.851Z,12.26
2018-04-24T08:40:06.970Z,12.21
2018-04-24T08:41:06.867Z,12.19
2018-04-24T08:42:06.914Z,12.26
2018-04-24T08:43:06.979Z,12.26
2018-04-24T08:44:06.904Z,12.31
2018-04-24T08:45:06.916Z,12.37
2018-04-24T08:46:06.900Z,12.26
2018-04-24T08:47:06.941Z,12.31
2018-04-24T08:48:06.960Z,12.38
2018-04-24T08:49:06.947Z,12.43
2018-04-24T08:50:06.990Z,12.29
2018-04-24T08:51:06.958Z,12.40
2018-04-24T08:52:06.970Z,12.38
2018-04-24T08:53:06.984Z,12.46
2018-04-24T08:54:06.996Z,12.49
2018-04-24T08:55:07.019Z,12.48
2018-04-24T08:56:07.015Z,12.52
2018-04-24T08:57:07.066Z,12.54
2018-04-24T08:58:07.024Z,12.54
2018-04-24T08:59:07.093Z,12.46
2018-04-24T09:00:07.077Z,12.58
2018-04-24T09:01:07.059Z,12.70
2018-04-24T09:02:07.104Z,12.79
2018-04-24T09:03:07.084Z,12.79
2018-04-24T09:04:07.100Z,12.76
2018-04-24T09:05:07.153Z,12.80
2018-04-24T09:06:07.114Z,12.79
2018-04-24T09:07:07.146Z,12.98
2018-04-24T09:08:07.174Z,13.03
2018-04-24T09:09:07.170Z,13.04
2018-04-24T09:10:07.182Z,12.99
2018-04-24T09:11:07.184Z,13.12
2018-04-24T09:12:07.179Z,13.24
2018-04-24T09:13:07.193Z,13.07
2018-04-24T09:14:07.275Z,13.10
2018-04-24T09:15:07.253Z,13.13
2018-04-24T09:16:07.250Z,13.17
2018-04-24T09:17:07.221Z,13.10
2018-04-24T09:18:07.325Z,13.21
2018-04-24T09:19:07.254Z,13.29
2018-04-24T09:20:07.289Z,13.32
2018-04-24T09:21:07.275Z,13.35
2018-04-24T09:22:07.300Z,13.35
2018-04-24T09:23:07.303Z,13.32
2018-04-24T09:24:07.309Z,13.07
2018-04-24T09:25:07.349Z,13.04
2018-04-24T09:26:07.326Z,13.14
2018-04-24T09:27:07.370Z,13.24
2018-04-24T09:28:07.348Z,13.28
2018-04-24T09:29:07.370Z,13.24
2018-04-24T09:30:07.371Z,13.13
2018-04-24T09:31:07.380Z,13.10
2018-04-24T09:32:07.389Z,13.25
2018-04-24T09:33:07.418Z,13.24
2018-04-24T09:34:07.418Z,13.38
2018-04-24T09:35:07.454Z,13.38
2018-04-24T09:36:07.470Z,13.36
2018-04-24T09:37:07.472Z,13.59
2018-04-24T09:38:07.457Z,13.69
2018-04-24T09:39:07.560Z,13.68
2018-04-24T09:40:07.504Z,13.83
2018-04-24T09:41:07.504Z,13.96
2018-04-24T09:42:07.524Z,14.19
2018-04-24T09:43:07.543Z,14.11
2018-04-24T09:44:07.524Z,13.69
2018-04-24T09:45:07.572Z,13.72
2018-04-24T09:46:07.553Z,13.54
2018-04-24T09:47:07.560Z,13.43
2018-04-24T09:48:07.606Z,13.39
2018-04-24T09:49:07.584Z,13.38
2018-04-24T09:50:07.620Z,13.36
2018-04-24T09:51:07.674Z,13.41
2018-04-24T09:52:07.617Z,13.39
2018-04-24T09:53:07.637Z,13.35
2018-04-24T09:54:08.215Z,13.39
2018-04-24T09:55:07.658Z,13.25
2018-04-24T09:56:07.677Z,13.21
2018-04-24T09:57:07.689Z,13.21
2018-04-24T09:58:07.772Z,13.21
2018-04-24T09:59:07.967Z,13.25
2018-04-24T10:00:07.719Z,13.16
2018-04-24T10:01:07.735Z,13.10
2018-04-24T10:02:07.783Z,13.14
2018-04-24T10:03:07.745Z,13.12
2018-04-24T10:04:07.804Z,13.12
2018-04-24T10:05:07.762Z,13.25
2018-04-24T10:06:07.820Z,13.25
2018-04-24T10:07:07.836Z,13.27
2018-04-24T10:08:07.808Z,13.35
2018-04-24T10:09:07.817Z,13.44
2018-04-24T10:10:07.835Z,13.53
2018-04-24T10:11:07.837Z,13.57
2018-04-24T10:12:07.841Z,13.63
2018-04-24T10:13:07.931Z,13.61
2018-04-24T10:14:07.897Z,13.57
2018-04-24T10:15:07.911Z,13.62
2018-04-24T10:16:07.907Z,13.57
2018-04-24T10:17:07.900Z,13.59
2018-04-24T10:18:07.945Z,13.69
2018-04-24T10:19:07.927Z,13.46
2018-04-24T10:20:07.976Z,13.47
2018-04-24T10:21:07.967Z,13.38
2018-04-24T10:22:07.966Z,13.39
2018-04-24T10:23:07.975Z,13.48
2018-04-24T10:24:08.001Z,13.57
2018-04-24T10:25:08.012Z,13.65
2018-04-24T10:26:08.014Z,13.65
2018-04-24T10:27:08.024Z,13.81
2018-04-24T10:28:08.061Z,13.75
2018-04-24T10:29:08.197Z,13.76
2018-04-24T10:30:08.058Z,13.73
2018-04-24T10:31:08.104Z,13.72
2018-04-24T10:32:08.070Z,13.62
2018-04-24T10:33:08.083Z,13.59
2018-04-24T10:34:08.137Z,13.47
2018-04-24T10:35:08.187Z,13.36
2018-04-24T10:36:08.127Z,13.28
2018-04-24T10:37:08.135Z,13.21
2018-04-24T10:38:08.138Z,13.38
2018-04-24T10:39:08.147Z,13.44
2018-04-24T10:40:08.163Z,13.46
2018-04-24T10:41:08.220Z,13.61
2018-04-24T10:42:08.184Z,13.68
2018-04-24T10:43:08.195Z,13.80
2018-04-24T10:44:08.204Z,13.65
2018-04-24T10:45:08.213Z,13.72
2018-04-24T10:46:08.251Z,13.72
2018-04-24T10:47:08.247Z,13.72
2018-04-24T10:48:08.291Z,13.63
2018-04-24T10:49:08.263Z,13.63
2018-04-24T10:50:08.274Z,13.66
2018-04-24T10:51:08.277Z,13.62
2018-04-24T10:52:08.345Z,13.57
2018-04-24T10:53:08.356Z,13.59
2018-04-24T10:54:08.339Z,13.54
2018-04-24T10:55:08.343Z,13.59
2018-04-24T10:56:08.334Z,13.59
2018-04-24T10:57:08.405Z,13.83
2018-04-24T10:58:08.374Z,13.71
2018-04-24T10:59:08.386Z,13.76
2018-04-24T11:00:08.404Z,13.75
2018-04-24T11:01:08.402Z,13.80
2018-04-24T11:02:08.412Z,13.66
2018-04-24T11:03:08.430Z,13.69
2018-04-24T11:04:08.433Z,13.71
2018-04-24T11:05:08.497Z,13.68
2018-04-24T11:06:08.457Z,13.63
2018-04-24T11:07:08.471Z,13.75
2018-04-24T11:08:08.478Z,14.05
2018-04-24T11:09:08.491Z,14.19
2018-04-24T11:10:08.508Z,14.38
2018-04-24T11:11:08.513Z,14.36
2018-04-24T11:12:08.528Z,14.36
2018-04-24T11:13:08.542Z,14.21
2018-04-24T11:14:08.541Z,14.23
2018-04-24T11:15:08.619Z,14.29
2018-04-24T11:16:08.600Z,14.35
2018-04-24T11:17:08.632Z,14.39
2018-04-24T11:18:08.602Z,14.44
2018-04-24T11:19:08.605Z,14.26
2018-04-24T11:20:08.648Z,14.34
2018-04-24T11:21:08.622Z,14.39
2018-04-24T11:22:08.645Z,14.30
2018-04-24T11:23:08.671Z,14.38
2018-04-24T11:24:08.663Z,14.41
2018-04-24T11:25:08.683Z,14.31
2018-04-24T11:26:08.720Z,14.19
2018-04-24T11:27:08.707Z,14.12
2018-04-24T11:28:08.710Z,13.99
2018-04-24T11:29:08.751Z,14.02
2018-04-24T11:30:08.729Z,14.05
2018-04-24T11:31:08.743Z,14.08
2018-04-24T11:32:08.758Z,14.04
2018-04-24T11:33:08.769Z,14.20
2018-04-24T11:34:08.780Z,14.39
2018-04-24T11:35:08.878Z,14.52
2018-04-24T11:36:08.803Z,14.66
2018-04-24T11:37:08.814Z,14.54
2018-04-24T11:38:08.902Z,14.56
2018-04-24T11:39:08.859Z,14.61
2018-04-24T11:40:08.894Z,14.60
2018-04-24T11:41:08.891Z,14.72
2018-04-24T11:42:08.885Z,14.66
2018-04-24T11:43:08.933Z,14.71
2018-04-24T11:44:08.912Z,14.71
2018-04-24T11:45:08.940Z,14.74
2018-04-24T11:46:08.934Z,14.45
2018-04-24T11:47:08.942Z,14.34
2018-04-24T11:48:08.952Z,14.20
2018-04-24T11:49:08.968Z,14.08
2018-04-24T11:50:08.962Z,14.27
2018-04-24T11:51:08.980Z,14.11
2018-04-24T11:52:08.989Z,14.05
2018-04-24T11:53:09.029Z,14.12
2018-04-24T11:54:09.014Z,14.17
2018-04-24T11:55:09.026Z,14.30
2018-04-24T11:56:09.162Z,14.45
2018-04-24T11:57:09.122Z,14.44
2018-04-24T11:58:09.058Z,14.54
2018-04-24T11:59:09.063Z,14.64
2018-04-24T12:00:09.087Z,14.82
2018-04-24T12:01:09.145Z,14.80
2018-04-24T12:02:09.099Z,14.80
2018-04-24T12:03:09.136Z,14.71
2018-04-24T12:04:09.130Z,14.71
2018-04-24T12:05:09.169Z,14.79
2018-04-24T12:06:09.170Z,14.42
2018-04-24T12:07:09.175Z,14.48
2018-04-24T12:08:09.190Z,14.41
2018-04-24T12:09:09.205Z,14.54
2018-04-24T12:10:09.200Z,14.57
2018-04-24T12:11:09.216Z,14.67
2018-04-24T12:12:09.282Z,14.75
2018-04-24T12:13:09.238Z,14.71
2018-04-24T12:14:09.322Z,14.57
2018-04-24T12:15:09.283Z,14.38
2018-04-24T12:16:09.284Z,14.36
2018-04-24T12:17:09.298Z,14.42
2018-04-24T12:18:09.283Z,14.17
2018-04-24T12:19:09.316Z,14.24
2018-04-24T12:20:09.333Z,14.21
2018-04-24T12:21:09.333Z,14.29
2018-04-24T12:22:09.333Z,14.24
2018-04-24T12:23:09.378Z,14.30
2018-04-24T12:24:09.435Z,14.48
2018-04-24T12:25:09.413Z,14.41
2018-04-24T12:26:09.432Z,14.53
2018-04-24T12:27:09.413Z,14.52
2018-04-24T12:28:09.417Z,14.56
2018-04-24T12:29:09.431Z,14.79
2018-04-24T12:30:09.449Z,15.13
2018-04-24T12:31:09.447Z,15.15
2018-04-24T12:32:09.444Z,15.04
2018-04-24T12:33:09.467Z,15.03
2018-04-24T12:34:09.480Z,14.97
2018-04-24T12:35:09.546Z,14.95
2018-04-24T12:36:09.568Z,15.01
2018-04-24T12:37:09.509Z,15.13
2018-04-24T12:38:09.549Z,15.01
2018-04-24T12:39:09.539Z,15.00
2018-04-24T12:40:09.600Z,14.87
2018-04-24T12:41:09.603Z,15.07
2018-04-24T12:42:09.609Z,15.16
2018-04-24T12:43:09.593Z,15.25
2018-04-24T12:44:09.620Z,15.09
2018-04-24T12:45:09.698Z,15.13
2018-04-24T12:46:09.627Z,15.05
2018-04-24T12:47:09.665Z,15.00
2018-04-24T12:48:09.660Z,14.98
2018-04-24T12:49:09.696Z,15.01
2018-04-24T12:50:09.685Z,14.97
2018-04-24T12:51:09.677Z,14.91
2018-04-24T12:52:09.740Z,14.94
2018-04-24T12:53:09.753Z,15.05
2018-04-24T12:54:09.722Z,14.93
2018-04-24T12:55:09.753Z,15.09
2018-04-24T12:56:09.754Z,15.18
2018-04-24T12:57:09.761Z,15.16
2018-04-24T12:58:09.795Z,15.12
2018-04-24T12:59:09.868Z,15.07
2018-04-24T13:00:09.800Z,15.11
2018-04-24T13:01:09.827Z,15.09
2018-04-24T13:02:09.822Z,15.09
2018-04-24T13:03:09.831Z,15.12
2018-04-24T13:04:09.840Z,15.13
2018-04-24T13:05:09.878Z,15.18
2018-04-24T13:06:09.876Z,15.03
2018-04-24T13:07:09.910Z,15.15
2018-04-24T13:08:09.911Z,15.13
2018-04-24T13:09:09.914Z,15.04
2018-04-24T13:10:09.941Z,15.16
2018-04-24T13:11:09.932Z,15.13
2018-04-24T13:12:09.938Z,14.98
2018-04-24T13:13:09.956Z,14.83
2018-04-24T13:14:09.970Z,14.83
2018-04-24T13:15:09.987Z,14.83
2018-04-24T13:16:10.013Z,14.94
2018-04-24T13:17:10.026Z,15.05
2018-04-24T13:18:10.019Z,15.05
2018-04-24T13:19:10.091Z,15.01
2018-04-24T13:20:10.059Z,14.95
2018-04-24T13:21:10.065Z,14.94
2018-04-24T13:22:10.058Z,14.91
2018-04-24T13:23:10.089Z,14.79
2018-04-24T13:24:10.088Z,14.78
2018-04-24T13:25:10.092Z,14.64
2018-04-24T13:26:10.132Z,14.56
2018-04-24T13:27:10.138Z,14.72
2018-04-24T13:28:10.167Z,14.60
2018-04-24T13:29:10.189Z,14.63
2018-04-24T13:30:10.192Z,14.63
2018-04-24T13:31:10.243Z,14.67
2018-04-24T13:32:10.192Z,14.80
2018-04-24T13:33:10.205Z,14.75
2018-04-24T13:34:10.385Z,14.63
2018-04-24T13:35:10.276Z,14.66
2018-04-24T13:36:10.273Z,14.69
2018-04-24T13:37:10.248Z,14.75
2018-04-24T13:38:10.252Z,14.67
2018-04-24T13:39:10.276Z,14.63
2018-04-24T13:40:10.275Z,14.61
2018-04-24T13:41:10.335Z,14.72
2018-04-24T13:43:10.316Z,14.61
2018-04-24T13:44:10.338Z,14.66
2018-04-24T13:45:10.335Z,14.67
2018-04-24T13:46:10.425Z,14.71
2018-04-24T13:47:10.357Z,14.63
2018-04-24T13:48:10.370Z,14.63
2018-04-24T13:49:10.416Z,14.72
2018-04-24T13:50:10.425Z,14.72
2018-04-24T13:51:10.408Z,14.71
2018-04-24T13:52:10.449Z,14.61
2018-04-24T13:53:10.427Z,14.52
2018-04-24T13:54:10.436Z,14.60
2018-04-24T13:55:10.447Z,14.67
2018-04-24T13:56:10.508Z,14.69
2018-04-24T13:57:10.485Z,14.69
2018-04-24T13:58:10.485Z,14.78
2018-04-24T13:59:10.505Z,14.79
2018-04-24T14:00:10.515Z,14.82
2018-04-24T14:01:10.512Z,14.86
2018-04-24T14:02:10.545Z,14.93
2018-04-24T14:03:10.552Z,14.82
2018-04-24T14:04:10.591Z,14.82
2018-04-24T14:05:10.585Z,14.69
2018-04-24T14:06:10.580Z,14.63
2018-04-24T14:07:10.625Z,14.72
2018-04-24T14:08:10.616Z,14.60
2018-04-24T14:09:10.605Z,14.64
2018-04-24T14:10:10.616Z,14.64
2018-04-24T14:11:10.639Z,14.57
2018-04-24T14:12:10.718Z,14.64
2018-04-24T14:13:10.677Z,14.78
2018-04-24T14:14:10.668Z,14.82
2018-04-24T14:15:10.684Z,14.90
2018-04-24T14:16:10.703Z,14.72
2018-04-24T14:17:10.767Z,14.78
2018-04-24T14:18:10.767Z,14.85
2018-04-24T14:19:10.760Z,14.87
2018-04-24T14:20:10.790Z,14.85
2018-04-24T14:21:10.737Z,14.85
2018-04-24T14:22:10.784Z,14.79
2018-04-24T14:23:10.790Z,14.78
2018-04-24T14:24:10.901Z,14.85
2018-04-24T14:25:10.795Z,15.00
2018-04-24T14:26:10.803Z,14.97
2018-04-24T14:27:10.815Z,15.04
2018-04-24T14:28:10.863Z,15.07
2018-04-24T14:29:10.926Z,15.12
2018-04-24T14:30:10.859Z,15.15
2018-04-24T14:31:10.894Z,15.04
2018-04-24T14:32:10.883Z,15.15
2018-04-24T14:33:10.888Z,15.12
2018-04-24T14:34:10.910Z,15.09
2018-04-24T14:35:10.938Z,15.15
2018-04-24T14:36:10.921Z,15.15
2018-04-24T14:37:10.986Z,15.28
2018-04-24T14:38:10.988Z,15.22
2018-04-24T14:39:10.963Z,15.16
2018-04-24T14:40:10.988Z,15.18
2018-04-24T14:41:10.991Z,15.23
2018-04-24T14:42:11.038Z,15.27
2018-04-24T14:43:11.005Z,15.33
2018-04-24T14:44:11.029Z,15.20
2018-04-24T14:45:11.021Z,15.19
2018-04-24T14:46:11.056Z,15.20
2018-04-24T14:47:11.056Z,15.22
2018-04-24T14:48:11.085Z,15.30
2018-04-24T14:49:11.074Z,15.22
2018-04-24T14:50:11.111Z,15.30
2018-04-24T14:52:11.103Z,15.44
2018-04-24T14:53:11.183Z,15.41
2018-04-24T14:54:11.151Z,15.46
2018-04-24T14:55:11.170Z,15.38
2018-04-24T14:56:11.165Z,15.28
2018-04-24T14:57:11.182Z,15.18
2018-04-24T14:58:11.208Z,15.23
2018-04-24T14:59:11.209Z,15.25
2018-04-24T15:00:11.216Z,15.18
2018-04-24T15:01:11.211Z,15.18
2018-04-24T15:02:11.265Z,15.19
2018-04-24T15:03:11.263Z,15.05
2018-04-24T15:04:11.299Z,15.05
2018-04-24T15:05:11.260Z,15.00
2018-04-24T15:06:11.295Z,14.91
2018-04-24T15:07:11.289Z,14.97
2018-04-24T15:08:11.306Z,15.07
2018-04-24T15:09:11.308Z,14.94
2018-04-24T15:10:11.316Z,15.05
2018-04-24T15:11:11.343Z,14.95
2018-04-24T15:12:11.614Z,14.97
2018-04-24T15:13:11.353Z,14.91
2018-04-24T15:14:11.463Z,14.79
2018-04-24T15:15:11.465Z,14.80
2018-04-24T15:16:11.387Z,14.93
2018-04-24T15:17:11.494Z,14.95
2018-04-24T15:18:11.447Z,14.95
2018-04-24T15:19:11.437Z,15.16
2018-04-24T15:20:11.455Z,15.12
2018-04-24T15:21:11.463Z,15.19
2018-04-24T15:22:11.466Z,15.09
2018-04-24T15:23:11.503Z,14.94
2018-04-24T15:24:11.483Z,15.03
2018-04-24T15:25:11.586Z,15.09
2018-04-24T15:26:11.532Z,15.05
2018-04-24T15:27:11.657Z,15.15
2018-04-24T15:28:11.598Z,15.07
2018-04-24T15:29:11.539Z,15.03
2018-04-24T15:30:11.567Z,15.03
2018-04-24T15:31:11.669Z,15.22
2018-04-24T15:32:11.593Z,15.13
2018-04-24T15:33:11.641Z,15.20
2018-04-24T15:34:11.619Z,15.22
2018-04-24T15:35:11.632Z,15.20
2018-04-24T15:36:11.656Z,15.15
2018-04-24T15:37:11.640Z,15.15
2018-04-24T15:38:11.677Z,15.13
2018-04-24T15:39:11.668Z,15.23
2018-04-24T15:40:11.682Z,15.25
2018-04-24T15:41:11.683Z,15.30
2018-04-24T15:42:11.722Z,15.30
2018-04-24T15:43:11.723Z,15.30
2018-04-24T15:44:11.725Z,15.16
2018-04-24T15:45:11.738Z,15.35
2018-04-24T15:46:11.772Z,15.40
2018-04-24T15:47:11.848Z,15.41
2018-04-24T15:48:11.773Z,15.30
2018-04-24T15:49:11.784Z,15.31
2018-04-24T15:50:11.792Z,15.25
2018-04-24T15:51:11.809Z,15.28
2018-04-24T15:52:11.809Z,15.38
2018-04-24T15:53:11.859Z,15.34
2018-04-24T15:54:11.881Z,15.19
2018-04-24T15:55:11.866Z,15.35
2018-04-24T15:56:11.885Z,15.35
2018-04-24T15:57:11.883Z,15.37
2018-04-24T15:58:11.951Z,15.34
2018-04-24T15:59:11.925Z,15.49
2018-04-24T16:00:11.921Z,15.62
2018-04-24T16:01:11.913Z,15.78
2018-04-24T16:02:11.973Z,15.60
2018-04-24T16:03:11.989Z,15.71
2018-04-24T16:04:11.996Z,15.68
2018-04-24T16:05:11.966Z,15.67
2018-04-24T16:06:11.976Z,15.64
2018-04-24T16:07:12.009Z,15.71
2018-04-24T16:08:12.015Z,15.71
2018-04-24T16:09:12.074Z,15.56
2018-04-24T16:10:12.034Z,15.53
2018-04-24T16:11:12.100Z,15.53
2018-04-24T16:12:12.167Z,15.60
2018-04-24T16:13:12.061Z,15.62
2018-04-24T16:14:12.169Z,15.55
2018-04-24T16:15:12.116Z,15.64
2018-04-24T16:16:12.382Z,15.60
2018-04-24T16:17:12.263Z,15.70
2018-04-24T16:18:12.142Z,15.73
2018-04-24T16:19:12.742Z,15.78
2018-04-24T16:20:12.159Z,15.62
2018-04-24T16:21:12.181Z,15.64
2018-04-24T16:22:12.188Z,15.58
2018-04-24T16:23:12.202Z,15.62
2018-04-24T16:24:12.220Z,15.71
2018-04-24T16:25:12.252Z,15.41
2018-04-24T16:26:12.766Z,15.41
2018-04-24T16:27:12.292Z,15.33
2018-04-24T16:28:12.267Z,15.25
2018-04-24T16:29:12.279Z,15.43
2018-04-24T16:30:12.386Z,15.51
2018-04-24T16:31:12.350Z,15.51
2018-04-24T16:32:12.303Z,15.46
2018-04-24T16:33:12.359Z,15.44
2018-04-24T16:34:12.307Z,15.40
2018-04-24T16:35:12.372Z,15.44
2018-04-24T16:36:12.373Z,15.62
2018-04-24T16:37:12.401Z,15.62
2018-04-24T16:38:12.448Z,15.59
2018-04-24T16:39:12.450Z,15.62
2018-04-24T16:40:12.488Z,15.56
2018-04-24T16:41:12.435Z,15.66
2018-04-24T16:42:12.419Z,15.58
2018-04-24T16:43:12.488Z,15.64
2018-04-24T16:44:12.457Z,15.73
2018-04-24T16:45:12.446Z,15.73
2018-04-24T16:46:12.469Z,15.67
2018-04-24T16:47:12.472Z,15.64
2018-04-24T16:48:12.566Z,15.58
2018-04-24T16:49:12.535Z,15.53
2018-04-24T16:50:12.531Z,15.56
2018-04-24T16:51:12.584Z,15.48
2018-04-24T16:52:12.559Z,15.48
2018-04-24T16:53:12.552Z,15.40
2018-04-24T16:54:12.568Z,15.34
2018-04-24T16:55:12.560Z,15.43
2018-04-24T16:56:12.615Z,15.43
2018-04-24T16:57:12.593Z,15.48
2018-04-24T16:58:12.696Z,15.37
2018-04-24T16:59:12.644Z,15.35
2018-04-24T17:00:12.658Z,15.48
2018-04-24T17:01:12.647Z,15.43
2018-04-24T17:03:12.724Z,15.51
2018-04-24T17:04:12.680Z,15.43
2018-04-24T17:05:12.688Z,15.46
2018-04-24T17:06:12.718Z,15.49
2018-04-24T17:07:12.739Z,15.56
2018-04-24T17:08:12.815Z,15.58
2018-04-24T17:09:12.747Z,15.51
2018-04-24T17:10:12.778Z,15.38
2018-04-24T17:11:12.775Z,15.35
2018-04-24T17:12:12.779Z,15.30
2018-04-24T17:13:12.791Z,15.33
2018-04-24T17:14:12.812Z,15.46
2018-04-24T17:15:12.830Z,15.46
2018-04-24T17:16:12.835Z,15.35
2018-04-24T17:17:12.834Z,15.41
2018-04-24T17:18:12.970Z,15.48
2018-04-24T17:19:12.888Z,15.30
2018-04-24T17:20:12.877Z,15.33
2018-04-24T17:21:13.041Z,15.38
2018-04-24T17:22:12.899Z,15.49
2018-04-24T17:23:12.964Z,15.52
2018-04-24T17:24:12.967Z,15.55
2018-04-24T17:25:12.947Z,15.51
2018-04-24T17:26:12.959Z,15.52
2018-04-24T17:27:12.982Z,15.48
2018-04-24T17:28:12.979Z,15.48
2018-04-24T17:29:13.159Z,15.33
2018-04-24T17:30:13.010Z,15.44
2018-04-24T17:31:12.996Z,15.41
2018-04-24T17:32:13.081Z,15.34
2018-04-24T17:33:13.026Z,15.34
2018-04-24T17:34:13.034Z,15.20
2018-04-24T17:35:13.054Z,15.30
2018-04-24T17:36:13.075Z,15.15
2018-04-24T17:37:13.124Z,15.30
2018-04-24T17:38:13.125Z,15.31
2018-04-24T17:39:13.118Z,15.34
2018-04-24T17:40:13.110Z,15.33
2018-04-24T17:41:13.174Z,15.34
2018-04-24T17:42:13.129Z,15.34
2018-04-24T17:43:13.157Z,15.40
2018-04-24T17:44:13.194Z,15.40
2018-04-24T17:45:13.179Z,15.28
2018-04-24T17:46:13.214Z,15.34
2018-04-24T17:47:13.252Z,15.35
2018-04-24T17:48:13.207Z,15.33
2018-04-24T17:49:13.217Z,15.33
2018-04-24T17:50:13.258Z,15.20
2018-04-24T17:51:13.241Z,15.23
2018-04-24T17:52:13.255Z,15.35
2018-04-24T17:53:13.311Z,15.33
2018-04-24T17:54:13.298Z,15.40
2018-04-24T17:55:13.297Z,15.22
2018-04-24T17:56:13.405Z,15.35
2018-04-24T17:57:13.351Z,15.35
2018-04-24T17:58:13.319Z,15.22
2018-04-24T17:59:13.342Z,15.31
2018-04-24T18:00:13.387Z,15.30
2018-04-24T18:01:13.364Z,15.30
2018-04-24T18:02:13.414Z,15.15
2018-04-24T18:03:13.413Z,15.13
2018-04-24T18:04:13.462Z,15.07
2018-04-24T18:05:13.416Z,15.16
2018-04-24T18:06:13.523Z,15.11
2018-04-24T18:07:13.431Z,15.16
2018-04-24T18:08:13.450Z,15.15
2018-04-24T18:09:13.477Z,15.11
2018-04-24T18:10:13.458Z,15.11
2018-04-24T18:12:13.530Z,15.05
2018-04-24T18:13:13.500Z,15.11
2018-04-24T18:14:13.696Z,15.13
2018-04-24T18:15:13.547Z,15.07
2018-04-24T18:16:13.548Z,15.13
2018-04-24T18:17:13.574Z,15.11
2018-04-24T18:18:13.642Z,15.16
2018-04-24T18:19:13.592Z,15.07
2018-04-24T18:20:13.649Z,15.07
2018-04-24T18:21:13.648Z,15.00
2018-04-24T18:22:13.624Z,14.95
2018-04-24T18:23:13.631Z,14.95
2018-04-24T18:24:13.695Z,14.97
2018-04-24T18:25:13.644Z,14.86
2018-04-24T18:26:13.708Z,14.95
2018-04-24T18:27:13.723Z,14.90
2018-04-24T18:28:13.680Z,14.90
2018-04-24T18:29:13.713Z,14.87
2018-04-24T18:30:13.732Z,15.04
2018-04-24T18:31:13.751Z,14.94
2018-04-24T18:32:13.752Z,15.04
2018-04-24T18:33:13.872Z,15.04
2018-04-24T18:34:13.863Z,15.01
2018-04-24T18:35:13.844Z,14.93
2018-04-24T18:36:13.799Z,14.97
2018-04-24T18:37:13.788Z,15.00
2018-04-24T18:38:13.896Z,14.95
2018-04-24T18:39:13.797Z,14.94
2018-04-24T18:40:13.932Z,15.03
2018-04-24T18:41:13.895Z,15.03
2018-04-24T18:42:13.847Z,14.93
2018-04-24T18:43:13.868Z,14.93
2018-04-24T18:44:13.869Z,14.80
2018-04-24T18:45:13.871Z,14.86
2018-04-24T18:46:13.887Z,14.85
2018-04-24T18:47:13.895Z,14.90
2018-04-24T18:48:13.923Z,14.80
2018-04-24T18:49:13.946Z,14.86
2018-04-24T18:50:13.966Z,14.85
2018-04-24T18:51:13.963Z,14.91
2018-04-24T18:52:13.952Z,14.86
2018-04-24T18:53:14.045Z,14.85
2018-04-24T18:54:14.004Z,14.97
2018-04-24T18:55:14.011Z,14.91
2018-04-24T18:56:14.135Z,14.75
2018-04-24T18:57:14.129Z,14.80
2018-04-24T18:59:14.093Z,14.82
2018-04-24T19:00:14.082Z,14.74
2018-04-24T19:01:14.199Z,14.83
2018-04-24T19:02:14.087Z,14.79
2018-04-24T19:03:14.160Z,14.67
2018-04-24T19:04:14.130Z,14.79
2018-04-24T19:05:14.275Z,14.64
2018-04-24T19:06:14.116Z,14.71
2018-04-24T19:07:14.164Z,14.66
2018-04-24T19:08:14.188Z,14.60
2018-04-24T19:09:14.161Z,14.69
2018-04-24T19:10:14.290Z,14.61
2018-04-24T19:11:14.170Z,14.74
2018-04-24T19:12:14.188Z,14.71
2018-04-24T19:13:14.214Z,14.67
2018-04-24T19:14:14.203Z,14.61
2018-04-24T19:15:14.222Z,14.64
2018-04-24T19:16:14.269Z,14.63
2018-04-24T19:17:14.248Z,14.64
2018-04-24T19:18:14.299Z,14.60
2018-04-24T19:19:14.291Z,14.63
2018-04-24T19:20:14.275Z,14.61
2018-04-24T19:21:14.278Z,14.61
2018-04-24T19:22:14.348Z,14.57
2018-04-24T19:23:14.304Z,14.52
2018-04-24T19:24:14.315Z,14.49
2018-04-24T19:25:14.391Z,14.49
2018-04-24T19:26:14.366Z,14.46
2018-04-24T19:27:14.366Z,14.44
2018-04-24T19:28:14.383Z,14.38
2018-04-24T19:29:14.419Z,14.45
2018-04-24T19:30:14.388Z,14.39
2018-04-24T19:31:14.479Z,14.48
2018-04-24T19:32:14.459Z,14.44
2018-04-24T19:33:14.427Z,14.45
2018-04-24T19:34:14.425Z,14.36
2018-04-24T19:35:14.462Z,14.42
2018-04-24T19:36:14.499Z,14.41
2018-04-24T19:37:14.502Z,14.44
2018-04-24T19:38:14.513Z,14.41
2018-04-24T19:39:14.575Z,14.48
2018-04-24T19:40:14.568Z,14.30
2018-04-24T19:41:14.552Z,14.42
2018-04-24T19:42:14.582Z,14.45
2018-04-24T19:43:14.757Z,14.52
2018-04-24T19:44:14.552Z,14.44
2018-04-24T19:45:14.610Z,14.44
2018-04-24T19:46:14.561Z,14.36
2018-04-24T19:47:14.631Z,14.36
2018-04-24T19:48:14.629Z,14.34
2018-04-24T19:49:14.656Z,14.34
2018-04-24T19:50:14.610Z,14.30
2018-04-24T19:51:14.678Z,14.44
2018-04-24T19:52:14.729Z,14.39
2018-04-24T19:53:14.658Z,14.35
2018-04-24T19:54:14.817Z,14.30
2018-04-24T19:55:14.743Z,14.29
2018-04-24T19:56:14.697Z,14.34
2018-04-24T19:57:14.687Z,14.29
2018-04-24T19:58:14.718Z,14.27
2018-04-24T19:59:14.707Z,14.24
2018-04-24T20:00:14.734Z,14.24
2018-04-24T20:01:14.747Z,14.27
2018-04-24T20:02:14.755Z,14.23
2018-04-24T20:03:14.770Z,14.29
2018-04-24T20:04:14.828Z,14.34
2018-04-24T20:05:14.848Z,14.21
2018-04-24T20:06:14.855Z,14.26
2018-04-24T20:07:14.821Z,14.26
2018-04-24T20:08:14.831Z,14.19
2018-04-24T20:09:14.865Z,14.16
2018-04-24T20:10:14.882Z,14.24
2018-04-24T20:11:14.900Z,14.16
2018-04-24T20:12:14.901Z,14.19
2018-04-24T20:13:14.865Z,14.23
2018-04-24T20:14:14.897Z,14.21
2018-04-24T20:15:14.928Z,14.16
2018-04-24T20:16:14.935Z,14.16
2018-04-24T20:17:14.932Z,14.08
2018-04-24T20:18:15.024Z,14.12
2018-04-24T20:19:14.953Z,14.09
2018-04-24T20:20:14.957Z,14.23
2018-04-24T20:21:14.974Z,14.21
2018-04-24T20:22:14.975Z,14.08
2018-04-24T20:23:15.135Z,14.13
2018-04-24T20:24:15.076Z,14.11
2018-04-24T20:25:15.098Z,14.11
2018-04-24T20:26:15.007Z,14.09
2018-04-24T20:27:15.051Z,14.13
2018-04-24T20:28:15.028Z,14.13
2018-04-24T20:29:15.073Z,14.08
2018-04-24T20:30:15.086Z,14.12
2018-04-24T20:31:15.168Z,14.11
2018-04-24T20:32:15.119Z,14.06
2018-04-24T20:33:15.082Z,14.16
2018-04-24T20:34:15.162Z,14.08
2018-04-24T20:35:15.110Z,14.09
2018-04-24T20:36:15.133Z,14.08
2018-04-24T20:37:15.154Z,14.11
2018-04-24T20:38:15.214Z,14.09
2018-04-24T20:39:15.183Z,14.09
2018-04-24T20:40:15.209Z,14.17
2018-04-24T20:41:15.242Z,14.11
2018-04-24T20:42:15.196Z,14.20
2018-04-24T20:43:15.237Z,14.08
2018-04-24T20:44:15.210Z,14.19
2018-04-24T20:45:15.317Z,14.20
2018-04-24T20:46:15.221Z,14.16
2018-04-24T20:47:15.232Z,14.13
2018-04-24T20:48:15.340Z,14.21
2018-04-24T20:49:15.287Z,14.20
2018-04-24T20:50:15.287Z,14.19
2018-04-24T20:51:15.298Z,14.31
2018-04-24T20:52:15.292Z,14.29
2018-04-24T20:53:15.388Z,14.39
2018-04-24T20:54:15.336Z,14.34
2018-04-24T20:55:15.377Z,14.30
2018-04-24T20:56:15.366Z,14.35
2018-04-24T20:57:15.339Z,14.38
2018-04-24T20:58:15.370Z,14.29
2018-04-24T20:59:15.533Z,14.30
2018-04-24T21:00:15.419Z,14.36
2018-04-24T21:01:15.385Z,14.45
2018-04-24T21:02:15.407Z,14.38
2018-04-24T21:03:15.448Z,14.45
2018-04-24T21:04:15.469Z,14.45
2018-04-24T21:05:15.459Z,14.31
2018-04-24T21:06:15.520Z,14.31
2018-04-24T21:07:15.533Z,14.39
2018-04-24T21:08:15.480Z,14.34
2018-04-24T21:09:15.519Z,14.31